Latest Weather Observations for Middle Percy Island

IDQ60801

Issued at 8:31 pm EST Monday 20 May 2019 (issued every 10 minutes, with the page automatically refreshed every 10 minutes)

About weather observations | Map of weather stations | Latest weather observations for QLD | Other Formats
Station Details ID: 200001 Name: MIDDLE PERCY ISLAND Lat: -21.66 Lon: 150.27 Height: 208.7 m
Data from the previous 72 hours. | See also: Recent months at Middle Percy Island
Date/Time
EST
Temp
°C
App
Temp
°C
Dew
Point
°C
Rel
Hum
%
Delta-T
°C
Wind Press
QNH
hPa
Press
MSL
hPa
Rain since
9am
mm
Dir  Spd
km/h
Gust
km/h
Spd
kts
Gust
kts
20/08:30pm 20.1 18.2 18.6 91 0.9 SE 26 48 14 26 1022.6 1021.8 2.0
20/08:23pm 20.4 17.8 18.7 90 1.1 SE 30 48 16 26 1022.5 1021.7 2.0
20/08:00pm 19.6 17.8 18.8 95 0.5 SE 26 39 14 21 1022.3 1021.5 1.8
20/07:30pm 19.7 16.8 18.9 95 0.5 SE 32 54 17 29 1022.3 1021.5 1.8
20/07:05pm 20.6 17.7 18.9 90 1.1 SSE 32 50 17 27 1021.6 1020.8 1.0
20/07:00pm 20.6 17.7 18.9 90 1.1 SSE 32 43 17 23 1021.9 1021.1 1.0
20/06:30pm 20.6 17.2 18.9 90 1.1 SSE 35 54 19 29 1021.5 1020.7 1.0
20/06:00pm 20.5 18.1 19.0 91 0.9 SSE 30 43 16 23 1021.3 1020.5 1.0
20/05:30pm 20.5 17.1 19.0 91 1.0 SSE 35 48 19 26 1021.0 1020.1 1.0
20/05:16pm 20.4 18.5 19.4 94 0.6 SSE 28 44 15 24 1021.0 1020.1 1.0
20/05:00pm 19.3 19.0 18.3 94 0.6 SSE 17 24 9 13 1021.0 1020.1 1.0
20/04:30pm 19.1 20.0 18.3 95 0.5 SE 11 19 6 10 1021.1 1020.2 1.0
20/04:00pm 19.4 18.7 18.7 96 0.4 SSE 20 30 11 16 1021.2 1020.3 0.8
20/03:30pm 19.5 19.1 18.8 96 0.4 S 19 24 10 13 1021.1 1020.2 0.8
20/03:09pm 18.6 15.8 17.3 92 0.8 SE 28 46 15 25 1021.3 1020.5 0.6
20/03:00pm 19.9 16.5 16.7 82 1.9 SE 30 44 16 24 1021.1 1020.2 0.0
20/02:30pm 21.8 18.7 17.6 77 2.6 SSE 30 37 16 20 1020.9 1020.0 0.0
20/02:00pm 22.0 19.1 18.0 78 2.5 SSE 30 41 16 22 1020.8 1019.9 0.0
20/01:30pm 23.4 21.0 17.4 69 3.7 SE 26 35 14 19 1021.1 1020.2 0.0
20/01:00pm 23.2 19.4 16.7 67 4.0 SE 32 39 17 21 1021.5 1020.7 0.0
20/12:30pm 22.4 20.8 18.4 78 2.5 SE 24 35 13 19 1021.9 1021.1 0.0
20/12:00pm 20.8 16.4 16.6 77 2.6 ESE 35 48 19 26 1022.4 1021.6 0.0
20/11:30am 22.4 20.6 17.8 75 2.9 SE 24 35 13 19 1022.4 1021.6 0.0
20/11:00am 22.5 19.5 16.8 70 3.5 SE 28 39 15 21 1022.6 1021.8 0.0
20/10:30am 23.1 20.1 16.9 68 3.8 SE 28 41 15 22 1022.9 1022.1 0.0
20/10:00am 23.0 19.0 16.1 65 4.2 SE 32 43 17 23 1023.0 1022.2 0.0
20/09:30am 22.4 18.1 16.0 67 3.9 SE 33 44 18 24 1023.2 1022.4 0.0
20/09:00am 22.1 18.0 15.9 68 3.7 SE 32 43 17 23 1023.1 1022.3 0.6
20/08:30am 21.7 18.5 16.4 72 3.2 SE 28 39 15 21 1023.0 1022.2 0.6
20/08:00am 21.1 20.5 18.9 87 1.4 SSE 20 28 11 15 1022.9 1022.1 0.4
20/07:30am 20.6 19.0 18.4 87 1.4 SSE 24 30 13 16 1022.4 1021.6 0.4
20/07:00am 20.2 19.1 17.8 86 1.5 SSE 20 30 11 16 1022.2 1021.4 0.4
20/06:30am 20.5 18.5 17.5 83 1.9 SE 24 33 13 18 1022.1 1021.3 0.4
20/06:00am 20.3 18.0 17.5 84 1.7 SE 26 37 14 20 1022.0 1021.2 0.4
20/05:30am 19.8 17.6 17.9 89 1.2 SSE 26 37 14 20 1021.9 1021.1 0.4
20/05:00am 21.1 18.8 17.7 81 2.1 SE 26 43 14 23 1021.6 1020.8 0.2
20/04:30am 20.6 19.0 16.6 78 2.4 SE 20 32 11 17 1021.8 1021.0 0.2
20/04:00am 20.5 18.5 16.5 78 2.4 SE 22 30 12 16 1021.8 1021.0 0.2
20/03:30am 20.6 17.6 16.8 79 2.3 ESE 28 43 15 23 1021.8 1021.0 0.2
20/03:00am 20.8 18.8 17.4 81 2.1 SE 24 39 13 21 1021.9 1021.1 0.2
20/02:32am 19.9 15.5 15.1 74 2.8 SE 32 50 17 27 1022.2 1021.4 0.2
20/02:30am 20.1 15.6 15.3 74 2.9 SE 33 50 18 27 1022.2 1021.4 0.2
20/02:26am 20.5 17.2 17.1 81 2.1 SE 30 50 16 27 1022.1 1021.3 0.2
20/02:00am 20.6 18.7 16.6 78 2.4 SE 22 35 12 19 1022.4 1021.6 0.2
20/01:30am 21.3 18.1 15.4 69 3.5 SE 26 37 14 20 1022.6 1021.8 0.2
20/01:00am 21.4 18.4 15.9 71 3.3 ESE 26 43 14 23 1022.7 1021.9 0.2
20/12:30am 21.1 17.9 16.3 74 2.9 SE 28 41 15 22 1022.9 1022.1 0.2
20/12:00am 20.8 18.9 16.6 77 2.6 SE 22 32 12 17 1023.1 1022.3 0.2
 
Date/Time
EST
Temp
°C
App
Temp
°C
Dew
Point
°C
Rel
Hum
%
Delta-T
°C
Wind Press
QNH
hPa
Press
MSL
hPa
Rain since
9am
mm
Dir  Spd
km/h
Gust
km/h
Spd
kts
Gust
kts
19/11:30pm 19.1 15.6 15.6 80 2.1 SE 28 43 15 23 1023.4 1022.6 0.2
19/11:24pm 20.3 17.1 17.3 83 1.9 SE 30 48 16 26 1023.5 1022.7 0.2
19/11:00pm 20.6 16.1 15.4 72 3.1 ESE 33 44 18 24 1023.5 1022.7 0.2
19/10:30pm 20.7 16.5 17.1 80 2.2 SE 35 50 19 27 1023.6 1022.8 0.2
19/10:14pm 20.8 17.2 17.6 82 2.0 SE 33 52 18 28 1023.4 1022.6 0.2
19/10:00pm 20.4 17.2 18.5 89 1.2 SE 33 48 18 26 1023.3 1022.5 0.2
19/09:33pm 21.4 17.9 17.8 80 2.2 SE 33 54 18 29 1023.4 1022.6 0.2
19/09:30pm 21.6 18.0 17.2 76 2.7 SE 32 46 17 25 1023.4 1022.6 0.2
19/09:19pm 21.4 17.7 17.0 76 2.7 SE 32 50 17 27 1023.5 1022.7 0.2
19/09:00pm 21.1 17.3 17.3 79 2.3 SE 33 50 18 27 1023.5 1022.7 0.2
19/08:30pm 21.8 17.0 16.5 72 3.2 ESE 37 50 20 27 1023.6 1022.8 0.2
19/08:00pm 21.9 17.9 16.8 73 3.1 ESE 33 50 18 27 1023.2 1022.4 0.2
19/07:30pm 21.8 17.2 17.2 75 2.8 SE 37 50 20 27 1023.0 1022.2 0.2
19/07:00pm 21.6 17.6 17.6 78 2.5 ESE 35 46 19 25 1022.6 1021.8 0.2
19/06:30pm 21.4 18.0 17.6 79 2.4 ESE 32 50 17 27 1022.1 1021.3 0.2
19/06:00pm 21.4 17.9 17.8 80 2.2 SE 33 54 18 29 1021.8 1021.0 0.2
19/05:30pm 20.9 16.3 16.1 74 2.9 SE 35 59 19 32 1021.7 1020.9 0.0
19/05:28pm 21.5 18.0 17.9 80 2.3 SE 33 57 18 31 1021.5 1020.7 0.0
19/05:00pm 21.6 17.5 18.2 81 2.1 SE 37 52 20 28 1021.2 1020.3 0.0
19/04:30pm 21.5 18.4 18.5 83 1.9 SE 32 44 17 24 1021.1 1020.2 0.0
19/04:00pm 21.8 18.3 17.8 78 2.5 SE 33 48 18 26 1020.9 1020.0 0.0
19/03:30pm 22.0 19.1 18.0 78 2.5 SE 30 43 16 23 1020.8 1019.9 0.0
19/03:00pm 22.6 18.8 18.2 76 2.8 SE 35 50 19 27 1020.8 1019.9 0.0
19/02:30pm 22.0 19.2 18.2 79 2.4 SE 30 43 16 23 1020.9 1020.0 0.0
19/02:00pm 23.4 20.2 18.7 75 3.0 SE 33 46 18 25 1021.1 1020.2 0.0
19/01:30pm 22.9 19.0 17.8 73 3.2 SE 35 48 19 26 1021.4 1020.6 0.0
19/01:00pm 23.6 19.6 17.6 69 3.8 SE 35 48 19 26 1021.7 1020.9 0.0
19/12:30pm 23.3 20.1 18.2 73 3.2 SE 32 43 17 23 1022.0 1021.2 0.0
19/12:00pm 22.9 18.9 17.6 72 3.3 SE 35 50 19 27 1022.2 1021.4 0.0
19/11:30am 24.2 20.9 19.3 74 3.2 SE 35 48 19 26 1022.5 1021.7 0.0
19/11:00am 23.0 19.3 17.5 71 3.4 SE 33 50 18 27 1022.7 1021.9 0.0
19/10:30am 22.7 19.3 17.8 74 3.1 SE 32 43 17 23 1023.2 1022.4 0.0
19/10:10am 23.3 20.1 18.2 73 3.2 SE 32 52 17 28 1023.5 1022.7 0.0
19/10:00am 22.5 18.2 17.8 75 2.9 SE 37 48 20 26 1023.5 1022.7 0.0
19/09:30am 22.5 19.1 18.1 76 2.8 SE 33 50 18 27 1023.6 1022.8 0.0
19/09:00am 22.7 20.0 18.5 77 2.7 SE 30 44 16 24 1023.6 1022.8 0.8
19/08:30am 21.5 19.5 18.3 82 2.0 SSE 26 35 14 19 1023.4 1022.6 0.8
19/08:00am 21.2 18.8 19.1 88 1.3 SSE 30 44 16 24 1023.3 1022.5 0.8
19/07:30am 20.8 18.7 18.9 89 1.2 SSE 28 39 15 21 1023.0 1022.2 0.8
19/07:00am 21.1 19.1 18.3 84 1.8 SSE 26 37 14 20 1022.8 1022.0 0.8
19/06:30am 20.7 18.4 18.5 87 1.4 SSE 28 35 15 19 1022.7 1021.9 0.8
19/06:00am 21.2 18.7 17.0 77 2.6 SE 26 39 14 21 1022.5 1021.7 0.8
19/05:30am 21.2 17.2 16.8 76 2.7 SE 33 46 18 25 1022.3 1021.5 0.8
19/05:00am 21.0 17.1 17.0 78 2.5 SE 33 46 18 25 1021.9 1021.1 0.8
19/04:39am 21.2 18.0 17.2 78 2.5 SE 30 48 16 26 1021.9 1021.1 0.8
19/04:30am 21.4 17.9 17.8 80 2.2 SE 33 44 18 24 1021.8 1021.0 0.8
19/04:00am 21.3 18.1 17.3 78 2.5 SE 30 43 16 23 1021.7 1020.9 0.8
19/03:30am 21.4 17.9 17.4 78 2.5 SE 32 48 17 26 1021.7 1020.9 0.8
19/03:00am 20.1 16.5 17.3 84 1.7 SE 32 50 17 27 1021.7 1020.9 0.8
19/02:35am 21.1 18.2 17.1 78 2.5 SE 28 56 15 30 1021.9 1021.1 0.8
19/02:30am 21.3 19.5 17.9 81 2.1 SE 24 35 13 19 1022.0 1021.2 0.8
19/02:00am 21.4 17.6 17.2 77 2.6 SE 33 48 18 26 1022.2 1021.4 0.8
19/01:30am 21.3 17.7 17.3 78 2.5 SE 32 43 17 23 1022.4 1021.6 0.8
19/01:00am 21.4 16.8 17.0 76 2.7 SE 37 48 20 26 1022.6 1021.8 0.8
19/12:30am 21.4 16.9 17.4 78 2.5 ESE 37 54 20 29 1022.7 1021.9 0.8
19/12:04am 20.7 17.9 18.1 85 1.6 SE 30 48 16 26 1022.7 1021.9 0.8
19/12:00am 20.6 17.8 18.2 86 1.5 SE 30 39 16 21 1022.8 1022.0 0.8
 
Date/Time
EST
Temp
°C
App
Temp
°C
Dew
Point
°C
Rel
Hum
%
Delta-T
°C
Wind Press
QNH
hPa
Press
MSL
hPa
Rain since
9am
mm
Dir  Spd
km/h
Gust
km/h
Spd
kts
Gust
kts
18/11:34pm 20.5 17.7 17.3 82 2.0 SE 28 56 15 30 1022.9 1022.1 0.4
18/11:30pm 21.0 19.4 18.4 85 1.6 SE 24 39 13 21 1022.8 1022.0 0.4
18/11:00pm 20.4 16.8 17.2 82 2.0 ESE 32 48 17 26 1023.3 1022.5 0.4
18/10:46pm 20.4 17.5 18.0 86 1.5 SE 30 48 16 26 1023.4 1022.6 0.4
18/10:30pm 20.0 16.8 18.1 89 1.2 ESE 32 44 17 24 1023.5 1022.7 0.4
18/10:16pm 21.6 17.2 17.6 78 2.5 SE 37 59 20 32 1023.4 1022.6 0.0
18/10:00pm 21.5 16.6 17.3 77 2.6 SE 39 50 21 27 1023.4 1022.6 0.0
18/09:30pm 21.2 16.0 17.4 79 2.4 SE 41 54 22 29 1023.4 1022.6 0.0
18/09:00pm 21.4 17.7 17.4 78 2.5 SE 33 50 18 27 1023.4 1022.6 0.0
18/08:30pm 21.5 16.8 17.7 79 2.4 SE 39 57 21 31 1023.3 1022.5 0.0
18/08:11pm 21.7 17.4 17.7 78 2.5 SE 37 59 20 32 1023.0 1022.2 0.0
18/08:00pm 21.7 17.4 17.7 78 2.5 SE 37 54 20 29 1023.0 1022.2 0.0
18/07:30pm 21.7 17.5 18.1 80 2.3 SE 37 52 20 28 1022.5 1021.7 0.0
18/07:02pm 21.7 17.4 17.7 78 2.5 SE 37 57 20 31 1022.3 1021.5 0.0
18/07:00pm 21.7 17.0 17.7 78 2.5 SE 39 57 21 31 1022.3 1021.5 0.0
18/06:55pm 21.6 17.1 17.4 77 2.6 SE 37 57 20 31 1022.2 1021.4 0.0
18/06:30pm 21.7 17.4 17.9 79 2.4 SE 37 50 20 27 1022.1 1021.3 0.0
18/06:00pm 21.6 17.6 17.6 78 2.5 SE 35 48 19 26 1021.8 1021.0 0.0
18/05:30pm 21.8 17.8 17.6 77 2.6 SE 35 50 19 27 1021.6 1020.8 0.0
18/05:00pm 21.9 17.6 17.7 77 2.6 SE 37 54 20 29 1021.3 1020.5 0.0
18/04:47pm 22.2 18.7 18.0 77 2.6 SE 33 52 18 28 1021.1 1020.2 0.0
18/04:30pm 21.9 17.7 17.1 74 3.0 SE 35 48 19 26 1021.0 1020.1 0.0
18/04:01pm 22.5 18.3 17.2 72 3.3 SE 35 54 19 29 1020.8 1019.9 0.0
18/04:00pm 22.5 18.3 17.2 72 3.3 SE 35 48 19 26 1020.8 1019.9 0.0
18/03:30pm 22.5 18.6 17.8 75 2.9 SE 35 52 19 28 1020.8 1019.9 0.0
18/03:15pm 22.7 19.2 17.8 74 3.1 SE 33 54 18 29 1020.8 1019.9 0.0
18/03:00pm 22.7 18.9 18.0 75 2.9 SE 35 50 19 27 1020.8 1019.9 0.0
18/02:30pm 22.8 19.3 17.5 72 3.3 SE 32 46 17 25 1021.0 1020.1 0.0
18/02:00pm 22.9 18.4 17.4 71 3.4 SE 37 52 20 28 1021.1 1020.2 0.0
18/01:30pm 22.8 19.6 18.6 77 2.7 SE 33 44 18 24 1021.2 1020.3 0.0
18/01:00pm 22.8 19.5 17.9 74 3.1 SE 32 50 17 27 1021.5 1020.7 0.0
18/12:59pm 22.8 19.6 18.1 75 3.0 SE 32 50 17 27 1021.6 1020.8 0.0
18/12:30pm 22.8 19.2 17.7 73 3.2 SE 33 46 18 25 1022.0 1021.2 0.0
18/12:23pm 22.7 19.1 17.2 71 3.4 SE 32 50 17 27 1022.0 1021.2 0.0
18/12:00pm 22.8 19.0 17.3 71 3.4 SE 33 46 18 25 1022.6 1021.8 0.0
18/11:30am 22.8 19.2 17.7 73 3.2 SE 33 50 18 27 1022.9 1022.1 0.0
18/11:00am 23.2 19.1 17.4 70 3.6 SE 35 48 19 26 1023.3 1022.5 0.0
18/10:30am 23.4 20.2 18.5 74 3.1 SE 33 48 18 26 1023.4 1022.6 0.0
18/10:25am 23.3 21.0 18.4 74 3.1 SE 28 48 15 26 1023.5 1022.7 0.0
18/10:00am 22.8 19.2 17.7 73 3.2 SE 33 46 18 25 1023.7 1022.9 0.0
18/09:30am 23.1 19.6 18.0 73 3.2 SE 33 46 18 25 1023.8 1023.0 0.0
18/09:00am 22.5 18.3 17.2 72 3.3 SE 35 48 19 26 1023.9 1023.1 1.2
18/08:30am 21.9 18.6 17.9 78 2.5 SE 32 43 17 23 1023.4 1022.6 1.2
18/08:00am 22.2 19.5 17.6 75 2.9 SE 28 43 15 23 1023.1 1022.3 1.2
18/07:30am 21.6 17.3 17.0 75 2.8 SE 35 48 19 26 1022.8 1022.0 1.2
18/07:00am 21.1 17.9 17.3 79 2.3 SE 30 41 16 22 1022.6 1021.8 1.2
18/06:30am 21.2 16.9 17.0 77 2.6 SE 35 46 19 25 1022.4 1021.6 1.2
18/06:09am 21.3 18.3 17.7 80 2.2 SE 30 50 16 27 1022.3 1021.5 1.2
18/06:00am 21.3 17.9 17.7 80 2.2 SE 32 46 17 25 1022.1 1021.3 1.2
18/05:30am 21.4 17.8 17.6 79 2.4 SE 33 50 18 27 1021.6 1020.8 1.2
18/05:29am 21.3 17.9 17.7 80 2.2 SE 32 50 17 27 1021.6 1020.8 1.2
18/05:00am 21.2 17.7 17.4 79 2.3 SE 32 44 17 24 1021.5 1020.7 1.2
18/04:30am 21.3 18.0 17.9 81 2.1 SE 32 46 17 25 1021.4 1020.6 1.2
18/04:16am 21.0 17.6 17.6 81 2.1 SE 32 50 17 27 1021.5 1020.7 1.2
18/04:00am 21.5 17.6 16.9 75 2.8 SE 33 46 18 25 1021.5 1020.7 1.2
18/03:30am 21.5 17.7 16.7 74 2.9 SE 32 46 17 25 1021.7 1020.9 1.2
18/03:00am 21.5 17.5 16.2 72 3.2 ESE 32 44 17 24 1021.8 1021.0 1.2
18/02:30am 21.6 17.8 16.6 73 3.1 SE 32 46 17 25 1021.9 1021.1 1.2
18/02:00am 21.5 17.2 16.0 71 3.3 SE 33 54 18 29 1022.1 1021.3 1.2
18/01:56am 21.5 17.5 16.2 72 3.2 SE 32 52 17 28 1022.2 1021.4 1.2
18/01:30am 21.5 16.7 16.5 73 3.1 SE 37 52 20 28 1022.2 1021.4 1.2
18/01:20am 21.6 17.3 16.8 74 3.0 SE 35 54 19 29 1022.2 1021.4 1.2
18/01:00am 21.6 15.5 16.3 72 3.2 SE 43 56 23 30 1022.2 1021.4 1.2
18/12:48am 21.6 16.6 17.0 75 2.8 ESE 39 59 21 32 1022.3 1021.5 1.2
18/12:30am 21.6 15.9 16.3 72 3.2 SE 41 57 22 31 1022.3 1021.5 1.2
18/12:00am 21.6 16.5 16.8 74 2.9 SE 39 54 21 29 1022.6 1021.8 1.2
 
Date/Time
EST
Temp
°C
App
Temp
°C
Dew
Point
°C
Rel
Hum
%
Delta-T
°C
Wind Press
QNH
hPa
Press
MSL
hPa
Rain since
9am
mm
Dir  Spd
km/h
Gust
km/h
Spd
kts
Gust
kts
17/11:30pm 21.3 17.4 18.7 85 1.6 SE 37 50 20 27 1022.8 1022.0 1.2
17/11:00pm 21.4 17.4 18.6 84 1.8 SE 37 50 20 27 1022.8 1022.0 1.2
17/10:35pm 21.5 18.4 18.9 85 1.7 SE 33 54 18 29 1022.8 1022.0 1.2
17/10:30pm 21.6 19.2 19.0 85 1.7 SE 30 44 16 24 1022.9 1022.1 1.2
17/10:00pm 21.7 17.6 18.3 81 2.1 ESE 37 50 20 27 1022.9 1022.1 1.2
17/09:36pm 21.9 18.8 18.5 81 2.1 ESE 32 52 17 28 1022.8 1022.0 1.2
17/09:30pm 21.9 19.6 18.5 81 2.1 SE 28 41 15 22 1022.9 1022.1 1.2
17/09:00pm 21.9 19.1 18.1 79 2.4 ESE 30 44 16 24 1022.8 1022.0 1.2
17/08:44pm 21.7 18.9 18.3 81 2.1 ESE 30 48 16 26 1022.7 1021.9 1.2

Other formats

Comma delimited format used in spreadsheet applications
http://www.bom.gov.au/fwo/IDQ60801/IDQ60801.94372.axf

JavaScript Object Notation format (JSON) in row-major order
http://www.bom.gov.au/fwo/IDQ60801/IDQ60801.94372.json

Data quality

Most of these data are generated automatically and are frequently updated. Quality checks on data are not normally performed. It is possible for incorrect values to appear. Refer to information at About Latest Weather Observations and please check the disclaimer before using these data.